Flight Track Log - Related Links

Times and Time Zones

All times are in EDT time to prevent confusion due to time zone crossing. See the ASA525 flight status page for this flight to view local times or setup timezone preferences in your user account.

Time Position Orientation Groundspeed Altitude Reporting Facility
EDT Latitude Longitude Course Direction KTS MPH feet Rate Location/Type
Wed 02:15:46 PM 34.1772 -118.3600 338° Northwest 167 192 38,000  Level Los Angeles Center
Wed 02:16:16 PM 34.1500 -118.3833 215° Southwest 201 231 2,800 -15,194 Descending Southern California TRACON
Wed 02:17:50 PM 34.1719 -118.4664 288° West 244 281 6,600 2,385 Climbing Los Angeles Center
Wed 02:18:52 PM 34.2339 -118.5036 334° Northwest 247 284 9,000 2,613 Climbing Los Angeles Center
Wed 02:19:54 PM 34.3022 -118.5456 333° Northwest 270 311 12,000 2,352 Climbing Los Angeles Center
Wed 02:20:57 PM 34.4017 -118.6081 333° Northwest 353 406 13,900 2,256 Climbing Los Angeles Center
Wed 02:21:00 PM 34.5861 -118.7430 338° Northwest  Level FlightAware Approximate
Wed 02:21:59 PM 34.4981 -118.6692 332° Northwest 400 460 16,700  Level Los Angeles Center
Wed 02:23:01 PM 34.5978 -118.7308 333° Northwest 405 466 19,300 2,516 Climbing Los Angeles Center
Wed 02:24:03 PM 34.7000 -118.7983 332° Northwest 418 481 21,900 2,323 Climbing Los Angeles Center
Wed 02:25:05 PM 34.8064 -118.8633 333° Northwest 426 490 24,100 2,129 Climbing Los Angeles Center
Wed 02:26:07 PM 34.9428 -118.9069 345° North 450 518 26,300 1,887 Climbing Los Angeles Center
Wed 02:27:09 PM 35.0683 -118.9433 347° North 462 532 28,000 1,839 Climbing Los Angeles Center
Wed 02:28:11 PM 35.1964 -118.9806 347° North 472 543 30,100 2,129 Climbing Los Angeles Center
Wed 02:29:13 PM 35.3478 -119.0239 347° North 470 541 32,400 2,226 Climbing Los Angeles Center
Wed 02:30:15 PM 35.4703 -119.0592 347° North 462 532 34,700 2,064 Climbing Los Angeles Center
Wed 02:31:18 PM 35.5850 -119.0939 346° North 440 506 36,700 1,600 Climbing Los Angeles Center
Wed 02:32:00 PM 35.6536 -119.1150 346° North 435 501 37,500 757 Climbing Oakland Center
Wed 02:33:01 PM 35.7931 -119.1561 347° North 432 497 38,000 244 Climbing Oakland Center
Wed 02:34:03 PM 35.9122 -119.1914 347° North 441 507 38,000  Level Oakland Center
Wed 02:35:04 PM 36.0303 -119.2261 347° North 440 506 38,000  Level Oakland Center
Wed 02:36:05 PM 36.1472 -119.2614 346° North 434 499 38,000  Level Oakland Center
Wed 02:37:06 PM 36.2642 -119.2978 346° North 436 502 38,000  Level Oakland Center
Wed 02:38:08 PM 36.3803 -119.3311 347° North 431 496 38,000  Level Oakland Center
Wed 02:39:09 PM 36.4964 -119.3647 347° North 428 493 38,000  Level Oakland Center
Wed 02:40:10 PM 36.6131 -119.4017 346° North 432 497 38,000  Level Oakland Center
Wed 02:41:12 PM 36.7528 -119.4436 346° North 432 497 38,000  Level Oakland Center
Wed 02:42:13 PM 36.8686 -119.4814 345° North 431 496 38,000  Level Oakland Center
Wed 02:43:14 PM 36.9842 -119.5169 346° North 427 491 38,000  Level Oakland Center
Wed 02:44:15 PM 37.1003 -119.5531 346° North 431 496 38,000  Level Oakland Center
Wed 02:45:17 PM 37.2161 -119.5897 346° North 431 496 38,000  Level Oakland Center
Wed 02:46:18 PM 37.3481 -119.6311 346° North 439 505 38,000  Level Oakland Center
Wed 02:47:19 PM 37.4561 -119.6647 346° North 439 505 38,000  Level Oakland Center
Wed 02:48:20 PM 37.5750 -119.6994 347° North 439 505 38,000  Level Oakland Center
Wed 02:49:22 PM 37.6931 -119.7472 342° North 440 506 38,000  Level Oakland Center
Wed 02:50:23 PM 37.8019 -119.8111 335° Northwest 433 498 38,000  Level Oakland Center
Wed 02:51:24 PM 37.9461 -119.8558 346° North 442 509 38,000  Level Oakland Center
Wed 02:52:26 PM 38.0667 -119.8922 347° North 446 513 38,000  Level Oakland Center
Wed 02:53:27 PM 38.1864 -119.9281 347° North 443 510 38,000  Level Oakland Center
Wed 02:54:28 PM 38.3056 -119.9656 346° North 443 510 38,000  Level Oakland Center
Wed 02:55:30 PM 38.4231 -120.0033 346° North 438 504 38,000  Level Oakland Center
Wed 02:56:31 PM 38.5408 -120.0397 346° North 438 504 38,000  Level Oakland Center
Wed 02:57:32 PM 38.6575 -120.0769 346° North 436 502 38,000  Level Oakland Center
Wed 02:58:33 PM 38.7733 -120.1144 346° North 433 498 38,000  Level Oakland Center
Wed 02:59:35 PM 38.8900 -120.1511 346° North 434 499 38,000  Level Oakland Center
Wed 03:00:36 PM 39.0281 -120.1950 346° North 429 494 38,000  Level Oakland Center
Wed 03:01:37 PM 39.1444 -120.2328 346° North 432 497 38,000  Level Oakland Center
Wed 03:02:39 PM 39.2606 -120.2694 346° North 431 496 38,000  Level Oakland Center
Wed 03:03:40 PM 39.3767 -120.3075 346° North 433 498 38,000  Level Oakland Center
Wed 03:04:41 PM 39.4914 -120.3442 346° North 429 494 38,000  Level Oakland Center
Wed 03:05:43 PM 39.6086 -120.3831 346° North 434 499 38,000  Level Oakland Center
Wed 03:06:44 PM 39.7256 -120.4231 345° North 435 501 38,000  Level Oakland Center
Wed 03:07:45 PM 39.8428 -120.4600 346° North 434 499 38,000  Level Oakland Center
Wed 03:08:46 PM 39.9586 -120.4964 346° North 432 497 38,000  Level Oakland Center
Wed 03:09:48 PM 40.0894 -120.5400 346° North 436 502 38,000  Level Oakland Center
Wed 03:10:49 PM 40.2081 -120.5792 346° North 439 505 38,000  Level Oakland Center
Wed 03:11:50 PM 40.3281 -120.6186 346° North 445 512 38,000  Level Oakland Center
Wed 03:12:51 PM 40.4464 -120.6572 346° North 441 507 38,000  Level Oakland Center
Wed 03:13:53 PM 40.5789 -120.7011 346° North 444 511 38,000  Level Oakland Center
Wed 03:14:54 PM 40.6989 -120.7419 346° North 445 512 38,000  Level Oakland Center
Wed 03:15:55 PM 40.8183 -120.7828 345° North 443 510 38,000  Level Oakland Center
Wed 03:16:57 PM 40.9392 -120.8236 346° North 448 516 38,000  Level Oakland Center
Wed 03:17:58 PM 41.0567 -120.8647 345° North 440 506 38,000  Level Oakland Center
Wed 03:18:59 PM 41.1783 -120.9061 346° North 449 517 38,000  Level Oakland Center
Wed 03:20:01 PM 41.2975 -120.9475 345° North 445 512 38,000  Level Oakland Center
Wed 03:21:02 PM 41.4408 -120.9981 345° North 445 512 38,000  Level Oakland Center
Wed 03:22:03 PM 41.5608 -121.0389 346° North 446 513 38,000  Level Oakland Center
Wed 03:23:04 PM 41.6811 -121.0811 345° North 447 514 38,000  Level Oakland Center
Wed 03:24:06 PM 41.8017 -121.1228 346° North 449 517 38,000  Level Oakland Center
Wed 03:25:07 PM 41.9214 -121.1650 345° North 448 516 38,000  Level Oakland Center
Wed 03:26:08 PM 42.0419 -121.2064 346° North 449 517 38,000  Level Oakland Center
Wed 03:27:20 PM 42.1839 -121.2556 346° North 448 516 38,000  Level Seattle Center
Wed 03:28:22 PM 42.3058 -121.2997 345° North 457 526 38,000  Level Seattle Center
Wed 03:29:23 PM 42.4253 -121.3419 345° North 449 517 38,000  Level Seattle Center
Wed 03:30:24 PM 42.5697 -121.3925 346° North 447 514 38,000  Level Seattle Center
Wed 03:31:25 PM 42.6897 -121.4347 346° North 448 516 38,000  Level Seattle Center
Wed 03:32:26 PM 42.8097 -121.4803 344° North 449 517 38,000  Level Seattle Center
Wed 03:34:29 PM 43.0503 -121.5661 345° North 448 516 38,000  Level Seattle Center
Wed 03:35:30 PM 43.1692 -121.6117 344° North 445 512 38,000  Level Seattle Center
Wed 03:36:31 PM 43.2894 -121.6553 345° North 447 514 38,000  Level Seattle Center
Wed 03:37:32 PM 43.4100 -121.6981 346° North 448 516 38,000  Level Seattle Center
Wed 03:38:34 PM 43.5319 -121.7439 345° North 453 521 38,000  Level Seattle Center
Wed 03:39:35 PM 43.6528 -121.7892 345° North 452 520 38,000  Level Seattle Center
Wed 03:40:36 PM 43.7983 -121.8436 345° North 452 520 38,000  Level Seattle Center
Wed 03:41:37 PM 43.9078 -121.8806 346° North 457 526 38,000  Level Seattle Center
Wed 03:42:38 PM 44.0294 -121.9258 345° North 455 524 38,000  Level Seattle Center
Wed 03:43:39 PM 44.1744 -121.9803 345° North 453 521 38,000  Level Seattle Center
Wed 03:44:41 PM 44.2953 -122.0250 345° North 450 518 38,000  Level Seattle Center
Wed 03:45:42 PM 44.4150 -122.0714 345° North 449 517 38,000  Level Seattle Center
Wed 03:46:43 PM 44.5331 -122.1164 345° North 444 511 38,000  Level Seattle Center
Wed 03:47:44 PM 44.6528 -122.1619 345° North 446 513 38,000  Level Seattle Center
Wed 03:48:45 PM 44.7750 -122.2089 345° North 452 520 38,000  Level Seattle Center
Wed 03:49:46 PM 44.8917 -122.2544 345° North 461 531 38,000  Level Seattle Center
Wed 03:50:47 PM 45.0381 -122.3131 344° North 463 533 38,000  Level Seattle Center
Wed 03:51:48 PM 45.1606 -122.3614 344° North 461 531 38,000  Level Seattle Center
Wed 03:52:49 PM 45.2828 -122.4072 345° North 459 528 38,000  Level Seattle Center
Wed 03:53:50 PM 45.4047 -122.4558 344° North 459 528 38,000  Level Seattle Center
Wed 03:54:51 PM 45.5283 -122.5033 345° North 463 533 38,000  Level Seattle Center
Wed 03:55:53 PM 45.6506 -122.5536 344° North 462 532 38,000  Level Seattle Center
Wed 03:56:54 PM 45.7731 -122.5975 346° North 457 526 38,000 -885 Level Seattle Center
Wed 03:57:55 PM 45.8983 -122.6278 350° North 459 528 36,200 -2,459 Descending Seattle Center
Wed 03:58:56 PM 46.0225 -122.6575 351° North 454 522 33,000 -3,049 Descending Seattle Center
Wed 03:59:57 PM 46.1739 -122.6967 350° North 460 529 30,000 -2,607 Descending Seattle Center
Wed 04:00:58 PM 46.2939 -122.7194 353° North 448 516 27,700 -2,262 Descending Seattle Center
Wed 04:01:59 PM 46.4119 -122.7206 360° North 434 499 25,400 -2,262 Descending Seattle Center
Wed 04:03:00 PM 46.5292 -122.7156 North 425 489 23,100 -2,262 Descending Seattle Center
Wed 04:04:01 PM 46.6414 -122.7122 North 410 472 20,800 -2,164 Descending Seattle Center
Wed 04:05:02 PM 46.7514 -122.7064 North 401 461 18,700 -1,982 Descending Seattle Center
Wed 04:05:53 PM 46.8478 -122.6658 16° North 379 436 17,100 -1,981 Descending Seattle Center
Wed 04:06:48 PM 46.9217 -122.5808 38° Northeast 366 421 15,200 -1,944 Descending Seattle Center
Wed 04:07:04 PM 46.9431 -122.5611 32° Northeast 369 425 14,800 -1,869 Descending Seattle Center
Wed 04:07:49 PM 47.0156 -122.5300 16° North 356 410 13,300 -2,066 Descending Seattle Center
Wed 04:08:05 PM 47.0450 -122.5158 18° North 356 410 12,700 -1,636 Descending Seattle Center
Wed 04:08:55 PM 47.1239 -122.4939 11° North 338 389 11,500 -1,393 Descending Seattle Center
Wed 04:09:57 PM 47.2133 -122.4778 North 325 374 10,100 -1,173 Descending Seattle Center
Wed 04:11:08 PM 47.3092 -122.4622 North 296 341 8,900 -1,200 Descending Seattle Center
Wed 04:11:52 PM 47.3703 -122.4575 North 283 326 7,800 -1,180 Descending Seattle Center
Wed 04:12:09 PM 47.3889 -122.4542 North 287 330 7,700 -806 Descending Seattle Center
Wed 04:12:59 PM 47.4519 -122.4553 359° North 261 300 6,900 -1,189 Descending Seattle Center
Wed 04:14:00 PM 47.5256 -122.4572 359° North 265 305 5,500 -1,426 Descending Seattle Center
Wed 04:15:01 PM 47.5950 -122.4322 14° North 267 307 4,000 -1,033 Descending Seattle Center
Wed 04:16:02 PM 47.5981 -122.3386 87° East 219 252 3,400 -885 Descending Seattle Center
Wed 04:17:03 PM 47.5508 -122.3189 164° South 168 193 2,200 -1,078 Descending Seattle Center
Wed 04:18:10 PM 47.5039 -122.3183 180° South 144 166 1,100 -857 Descending Seattle Center
Wed 04:19:16 PM 47.4586 -122.3183 180° South 137 158 300 -727 Descending Seattle Center
Wed 04:21:00 PM 47.4499 -122.3118 132° Southeast  Level Estimated

Login

Don't have an account? Register now (free) for customized features, flight alerts, and more!